createdAt,value
2023-05-12T00:00:28.690Z,94324.00
2023-05-12T00:01:28.665Z,94322.00
2023-05-12T00:02:28.749Z,94322.00
2023-05-12T00:03:28.958Z,94320.00
2023-05-12T00:04:28.805Z,94322.00
2023-05-12T00:05:28.757Z,94322.00
2023-05-12T00:06:28.770Z,94316.00
2023-05-12T00:07:28.790Z,94316.00
2023-05-12T00:08:28.821Z,94316.00
2023-05-12T00:09:28.838Z,94316.00
2023-05-12T00:10:28.844Z,94320.00
2023-05-12T00:11:28.887Z,94318.00
2023-05-12T00:12:28.857Z,94318.00
2023-05-12T00:13:28.937Z,94318.00
2023-05-12T00:14:28.898Z,94318.00
2023-05-12T00:15:28.912Z,94316.00
2023-05-12T00:16:28.947Z,94318.00
2023-05-12T00:17:28.970Z,94316.00
2023-05-12T00:18:28.970Z,94314.00
2023-05-12T00:19:28.973Z,94316.00
2023-05-12T00:20:28.990Z,94316.00
2023-05-12T00:21:28.994Z,94316.00
2023-05-12T00:22:29.013Z,94312.00
2023-05-12T00:23:29.008Z,94311.00
2023-05-12T00:24:29.024Z,94312.00
2023-05-12T00:25:29.100Z,94311.00
2023-05-12T00:26:29.077Z,94314.00
2023-05-12T00:27:29.078Z,94314.00
2023-05-12T00:28:29.102Z,94316.00
2023-05-12T00:29:29.111Z,94316.00
2023-05-12T00:30:29.138Z,94316.00
2023-05-12T00:31:29.218Z,94320.00
2023-05-12T00:32:29.184Z,94320.00
2023-05-12T00:33:29.186Z,94324.00
2023-05-12T00:34:29.190Z,94320.00
2023-05-12T00:35:29.205Z,94322.00
2023-05-12T00:36:29.229Z,94320.00
2023-05-12T00:37:29.229Z,94320.00
2023-05-12T00:38:29.255Z,94320.00
2023-05-12T00:39:29.265Z,94320.00
2023-05-12T00:40:29.268Z,94318.00
2023-05-12T00:41:29.308Z,94316.00
2023-05-12T00:42:29.260Z,94316.00
2023-05-12T00:43:29.278Z,94314.00
2023-05-12T00:44:29.267Z,94316.00
2023-05-12T00:45:29.282Z,94318.00
2023-05-12T00:46:29.374Z,94320.00
2023-05-12T00:47:29.301Z,94316.00
2023-05-12T00:48:29.277Z,94318.00
2023-05-12T00:49:29.292Z,94320.00
2023-05-12T00:50:29.283Z,94318.00
2023-05-12T00:51:29.341Z,94316.00
2023-05-12T00:52:29.317Z,94318.00
2023-05-12T00:53:41.111Z,94314.00
2023-05-12T00:54:30.298Z,94314.00
2023-05-12T00:55:29.289Z,94314.00
2023-05-12T00:56:29.317Z,94314.00
2023-05-12T00:57:29.274Z,94314.00
2023-05-12T00:58:29.265Z,94314.00
2023-05-12T00:59:29.278Z,94312.00
2023-05-12T01:00:29.267Z,94312.00
2023-05-12T01:01:29.323Z,94312.00
2023-05-12T01:02:29.369Z,94309.00
2023-05-12T01:03:29.291Z,94309.00
2023-05-12T01:04:29.231Z,94309.00
2023-05-12T01:05:29.245Z,94309.00
2023-05-12T01:06:29.216Z,94309.00
2023-05-12T01:07:29.222Z,94305.00
2023-05-12T01:08:29.229Z,94305.00
2023-05-12T01:09:29.189Z,94305.00
2023-05-12T01:10:29.187Z,94307.00
2023-05-12T01:11:29.175Z,94305.00
2023-05-12T01:12:29.169Z,94309.00
2023-05-12T01:13:29.176Z,94309.00
2023-05-12T01:14:29.191Z,94305.00
2023-05-12T01:15:29.151Z,94305.00
2023-05-12T01:16:29.160Z,94303.00
2023-05-12T01:17:29.201Z,94303.00
2023-05-12T01:18:29.244Z,94303.00
2023-05-12T01:19:29.139Z,94301.00
2023-05-12T01:20:29.143Z,94303.00
2023-05-12T01:21:29.105Z,94305.00
2023-05-12T01:22:29.115Z,94305.00
2023-05-12T01:23:29.087Z,94307.00
2023-05-12T01:24:29.104Z,94305.00
2023-05-12T01:25:29.080Z,94303.00
2023-05-12T01:26:29.136Z,94301.00
2023-05-12T01:27:29.070Z,94299.00
2023-05-12T01:28:29.049Z,94299.00
2023-05-12T01:29:29.065Z,94297.00
2023-05-12T01:30:29.030Z,94293.00
2023-05-12T01:31:29.085Z,94293.00
2023-05-12T01:32:29.055Z,94293.00
2023-05-12T01:33:29.015Z,94289.00
2023-05-12T01:34:29.022Z,94289.00
2023-05-12T01:35:29.016Z,94287.00
2023-05-12T01:36:29.015Z,94289.00
2023-05-12T01:37:29.032Z,94289.00
2023-05-12T01:38:28.999Z,94289.00
2023-05-12T01:39:29.044Z,94289.00
2023-05-12T01:40:29.054Z,94291.00
2023-05-12T01:41:29.109Z,94293.00
2023-05-12T01:42:29.128Z,94293.00
2023-05-12T01:43:29.148Z,94293.00
2023-05-12T01:44:29.165Z,94297.00
2023-05-12T01:45:29.184Z,94301.00
2023-05-12T01:46:29.301Z,94301.00
2023-05-12T01:47:29.298Z,94297.00
2023-05-12T01:48:29.306Z,94301.00
2023-05-12T01:49:29.314Z,94301.00
2023-05-12T01:50:29.345Z,94305.00
2023-05-12T01:51:29.422Z,94305.00
2023-05-12T01:52:29.382Z,94303.00
2023-05-12T01:53:29.392Z,94303.00
2023-05-12T01:54:29.429Z,94305.00
2023-05-12T01:55:29.409Z,94303.00
2023-05-12T01:56:29.408Z,94305.00
2023-05-12T01:57:29.425Z,94305.00
2023-05-12T01:58:29.427Z,94305.00
2023-05-12T01:59:29.448Z,94305.00
2023-05-12T02:00:29.448Z,94307.00
2023-05-12T02:01:29.534Z,94305.00
2023-05-12T02:02:29.472Z,94309.00
2023-05-12T02:03:29.518Z,94311.00
2023-05-12T02:04:29.484Z,94311.00
2023-05-12T02:05:29.473Z,94311.00
2023-05-12T02:06:29.485Z,94311.00
2023-05-12T02:07:29.513Z,94311.00
2023-05-12T02:08:29.499Z,94312.00
2023-05-12T02:09:29.523Z,94312.00
2023-05-12T02:10:29.577Z,94314.00
2023-05-12T02:11:29.597Z,94311.00
2023-05-12T02:12:29.606Z,94312.00
2023-05-12T02:13:29.608Z,94314.00
2023-05-12T02:14:29.588Z,94311.00
2023-05-12T02:15:29.596Z,94314.00
2023-05-12T02:16:29.644Z,94314.00
2023-05-12T02:17:29.652Z,94314.00
2023-05-12T02:18:29.710Z,94314.00
2023-05-12T02:19:29.720Z,94312.00
2023-05-12T02:20:29.744Z,94314.00
2023-05-12T02:21:29.785Z,94312.00
2023-05-12T02:22:29.814Z,94314.00
2023-05-12T02:23:29.868Z,94316.00
2023-05-12T02:24:29.881Z,94316.00
2023-05-12T02:25:29.909Z,94316.00
2023-05-12T02:26:29.926Z,94314.00
2023-05-12T02:27:29.911Z,94314.00
2023-05-12T02:28:29.924Z,94314.00
2023-05-12T02:29:29.959Z,94314.00
2023-05-12T02:30:29.967Z,94316.00
2023-05-12T02:31:30.050Z,94316.00
2023-05-12T02:32:30.140Z,94314.00
2023-05-12T02:33:30.045Z,94314.00
2023-05-12T02:34:30.056Z,94318.00
2023-05-12T02:35:30.072Z,94312.00
2023-05-12T02:36:30.157Z,94316.00
2023-05-12T02:37:30.163Z,94314.00
2023-05-12T02:38:30.193Z,94316.00
2023-05-12T02:39:30.204Z,94316.00
2023-05-12T02:40:30.217Z,94312.00
2023-05-12T02:41:30.246Z,94314.00
2023-05-12T02:42:30.288Z,94312.00
2023-05-12T02:43:30.324Z,94311.00
2023-05-12T02:44:30.381Z,94314.00
2023-05-12T02:45:30.433Z,94311.00
2023-05-12T02:46:30.494Z,94312.00
2023-05-12T02:47:30.575Z,94316.00
2023-05-12T02:48:30.575Z,94312.00
2023-05-12T02:49:30.623Z,94312.00
2023-05-12T02:50:30.618Z,94311.00
2023-05-12T02:51:30.629Z,94309.00
2023-05-12T02:52:30.655Z,94311.00
2023-05-12T02:53:30.630Z,94311.00
2023-05-12T02:54:30.663Z,94307.00
2023-05-12T02:55:30.659Z,94307.00
2023-05-12T02:56:31.951Z,94307.00
2023-05-12T02:57:30.678Z,94309.00
2023-05-12T02:58:30.661Z,94307.00
2023-05-12T02:59:30.670Z,94305.00
2023-05-12T03:00:30.666Z,94307.00
2023-05-12T03:01:30.703Z,94305.00
2023-05-12T03:02:30.707Z,94305.00
2023-05-12T03:03:30.787Z,94303.00
2023-05-12T03:04:30.633Z,94305.00
2023-05-12T03:05:30.616Z,94305.00
2023-05-12T03:06:30.612Z,94305.00
2023-05-12T03:07:30.628Z,94305.00
2023-05-12T03:08:30.593Z,94307.00
2023-05-12T03:09:30.600Z,94303.00
2023-05-12T03:10:30.594Z,94303.00
2023-05-12T03:11:30.620Z,94305.00
2023-05-12T03:12:30.583Z,94303.00
2023-05-12T03:13:30.551Z,94303.00
2023-05-12T03:14:30.543Z,94303.00
2023-05-12T03:15:30.551Z,94301.00
2023-05-12T03:16:30.566Z,94305.00
2023-05-12T03:17:30.534Z,94305.00
2023-05-12T03:18:30.562Z,94305.00
2023-05-12T03:19:30.546Z,94305.00
2023-05-12T03:20:30.516Z,94303.00
2023-05-12T03:21:30.510Z,94303.00
2023-05-12T03:22:30.504Z,94303.00
2023-05-12T03:23:30.501Z,94301.00
2023-05-12T03:24:30.499Z,94301.00
2023-05-12T03:25:30.471Z,94301.00
2023-05-12T03:26:30.472Z,94299.00
2023-05-12T03:27:30.469Z,94301.00
2023-05-12T03:28:30.470Z,94301.00
2023-05-12T03:29:30.447Z,94303.00
2023-05-12T03:30:30.456Z,94303.00
2023-05-12T03:31:30.536Z,94305.00
2023-05-12T03:32:30.467Z,94303.00
2023-05-12T03:33:30.434Z,94307.00
2023-05-12T03:34:30.423Z,94311.00
2023-05-12T03:35:30.413Z,94311.00
2023-05-12T03:36:30.391Z,94307.00
2023-05-12T03:37:30.393Z,94307.00
2023-05-12T03:38:30.385Z,94307.00
2023-05-12T03:39:30.385Z,94309.00
2023-05-12T03:40:30.366Z,94305.00
2023-05-12T03:41:30.373Z,94303.00
2023-05-12T03:42:30.365Z,94303.00
2023-05-12T03:43:30.359Z,94307.00
2023-05-12T03:44:30.366Z,94301.00
2023-05-12T03:45:30.356Z,94305.00
2023-05-12T03:46:30.368Z,94305.00
2023-05-12T03:47:30.447Z,94305.00
2023-05-12T03:48:30.344Z,94303.00
2023-05-12T03:49:30.330Z,94301.00
2023-05-12T03:50:30.290Z,94301.00
2023-05-12T03:51:30.321Z,94301.00
2023-05-12T03:52:30.320Z,94299.00
2023-05-12T03:53:30.285Z,94301.00
2023-05-12T03:54:30.279Z,94303.00
2023-05-12T03:55:30.265Z,94299.00
2023-05-12T03:56:30.290Z,94301.00
2023-05-12T03:57:30.256Z,94301.00
2023-05-12T03:58:30.244Z,94303.00
2023-05-12T03:59:30.228Z,94301.00
2023-05-12T04:00:30.223Z,94305.00
2023-05-12T04:01:30.219Z,94305.00
2023-05-12T04:02:30.253Z,94303.00
2023-05-12T04:03:30.301Z,94303.00
2023-05-12T04:04:30.217Z,94301.00
2023-05-12T04:05:30.183Z,94301.00
2023-05-12T04:06:30.189Z,94301.00
2023-05-12T04:07:30.170Z,94301.00
2023-05-12T04:08:30.158Z,94303.00
2023-05-12T04:09:30.153Z,94299.00
2023-05-12T04:10:30.163Z,94301.00
2023-05-12T04:11:30.158Z,94301.00
2023-05-12T04:12:30.161Z,94301.00
2023-05-12T04:13:30.148Z,94301.00
2023-05-12T04:14:41.611Z,94301.00
2023-05-12T04:15:31.120Z,94303.00
2023-05-12T04:16:30.166Z,94303.00
2023-05-12T04:17:30.172Z,94305.00
2023-05-12T04:18:30.134Z,94303.00
2023-05-12T04:19:30.116Z,94305.00
2023-05-12T04:20:30.084Z,94303.00
2023-05-12T04:21:30.087Z,94305.00
2023-05-12T04:22:30.063Z,94303.00
2023-05-12T04:23:30.184Z,94303.00
2023-05-12T04:24:30.058Z,94301.00
2023-05-12T04:25:30.044Z,94303.00
2023-05-12T04:26:30.040Z,94303.00
2023-05-12T04:27:30.026Z,94303.00
2023-05-12T04:28:30.019Z,94303.00
2023-05-12T04:29:30.033Z,94303.00
2023-05-12T04:30:30.021Z,94303.00
2023-05-12T04:31:30.069Z,94307.00
2023-05-12T04:32:30.066Z,94307.00
2023-05-12T04:33:30.061Z,94311.00
2023-05-12T04:34:30.068Z,94312.00
2023-05-12T04:35:30.090Z,94314.00
2023-05-12T04:36:30.092Z,94314.00
2023-05-12T04:37:30.138Z,94318.00
2023-05-12T04:38:30.170Z,94316.00
2023-05-12T04:39:30.191Z,94322.00
2023-05-12T04:40:31.200Z,94324.00
2023-05-12T04:41:30.232Z,94324.00
2023-05-12T04:42:30.253Z,94322.00
2023-05-12T04:44:30.273Z,94324.00
2023-05-12T04:45:30.308Z,94326.00
2023-05-12T04:46:30.329Z,94328.00
2023-05-12T04:47:30.321Z,94326.00
2023-05-12T04:48:30.257Z,94328.00
2023-05-12T04:49:30.270Z,94328.00
2023-05-12T04:50:30.256Z,94330.00
2023-05-12T04:51:30.234Z,94330.00
2023-05-12T04:52:30.238Z,94330.00
2023-05-12T04:53:30.233Z,94328.00
2023-05-12T04:54:30.212Z,94326.00
2023-05-12T04:55:30.221Z,94326.00
2023-05-12T04:56:30.212Z,94328.00
2023-05-12T04:57:30.194Z,94330.00
2023-05-12T04:58:30.197Z,94330.00
2023-05-12T04:59:30.182Z,94334.00
2023-05-12T05:00:30.179Z,94334.00
2023-05-12T05:01:30.233Z,94338.00
2023-05-12T05:02:30.230Z,94338.00
2023-05-12T05:03:30.332Z,94338.00
2023-05-12T05:04:30.163Z,94338.00
2023-05-12T05:05:30.149Z,94338.00
2023-05-12T05:06:30.128Z,94338.00
2023-05-12T05:07:30.122Z,94338.00
2023-05-12T05:08:30.103Z,94338.00
2023-05-12T05:09:30.121Z,94338.00
2023-05-12T05:10:30.120Z,94342.00
2023-05-12T05:11:30.201Z,94334.00
2023-05-12T05:12:30.099Z,94342.00
2023-05-12T05:13:30.096Z,94342.00
2023-05-12T05:14:30.067Z,94342.00
2023-05-12T05:15:30.084Z,94344.00
2023-05-12T05:16:30.076Z,94340.00
2023-05-12T05:17:30.094Z,94340.00
2023-05-12T05:18:30.074Z,94340.00
2023-05-12T05:19:45.875Z,94340.00
2023-05-12T05:20:32.362Z,94340.00
2023-05-12T05:21:30.170Z,94342.00
2023-05-12T05:22:30.199Z,94340.00
2023-05-12T05:23:30.263Z,94342.00
2023-05-12T05:24:30.241Z,94344.00
2023-05-12T05:25:30.269Z,94346.00
2023-05-12T05:26:30.271Z,94344.00
2023-05-12T05:27:30.298Z,94344.00
2023-05-12T05:28:30.313Z,94344.00
2023-05-12T05:29:30.318Z,94344.00
2023-05-12T05:30:30.364Z,94342.00
2023-05-12T05:31:30.371Z,94344.00
2023-05-12T05:32:30.421Z,94344.00
2023-05-12T05:33:30.354Z,94342.00
2023-05-12T05:34:30.348Z,94342.00
2023-05-12T05:35:30.325Z,94342.00
2023-05-12T05:36:31.584Z,94340.00
2023-05-12T05:37:30.313Z,94340.00
2023-05-12T05:38:30.301Z,94340.00
2023-05-12T05:39:30.315Z,94338.00
2023-05-12T05:40:38.568Z,94340.00
2023-05-12T05:41:31.278Z,94340.00
2023-05-12T05:42:30.522Z,94338.00
2023-05-12T05:43:30.267Z,94340.00
2023-05-12T05:44:30.269Z,94340.00
2023-05-12T05:45:30.239Z,94338.00
2023-05-12T05:46:30.259Z,94338.00
2023-05-12T05:47:30.508Z,94340.00
2023-05-12T05:48:30.240Z,94340.00
2023-05-12T05:49:30.217Z,94338.00
2023-05-12T05:50:30.217Z,94334.00
2023-05-12T05:51:30.235Z,94336.00
2023-05-12T05:52:30.495Z,94336.00
2023-05-12T05:53:30.186Z,94336.00
2023-05-12T05:54:30.171Z,94336.00
2023-05-12T05:55:30.165Z,94338.00
2023-05-12T05:56:30.179Z,94334.00
2023-05-12T05:57:30.198Z,94338.00
2023-05-12T05:58:30.239Z,94336.00
2023-05-12T05:59:30.316Z,94336.00
2023-05-12T06:00:30.240Z,94338.00
2023-05-12T06:01:30.197Z,94336.00
2023-05-12T06:02:30.262Z,94336.00
2023-05-12T06:03:30.282Z,94332.00
2023-05-12T06:04:30.330Z,94334.00
2023-05-12T06:05:30.200Z,94334.00
2023-05-12T06:06:30.195Z,94330.00
2023-05-12T06:07:30.206Z,94328.00
2023-05-12T06:08:30.221Z,94332.00
2023-05-12T06:09:30.196Z,94330.00
2023-05-12T06:10:30.171Z,94330.00
2023-05-12T06:11:30.175Z,94328.00
2023-05-12T06:12:30.143Z,94328.00
2023-05-12T06:13:30.130Z,94328.00
2023-05-12T06:14:30.146Z,94324.00
2023-05-12T06:15:30.136Z,94326.00
2023-05-12T06:16:30.138Z,94330.00
2023-05-12T06:17:32.016Z,94330.00
2023-05-12T06:18:30.345Z,94330.00
2023-05-12T06:19:30.272Z,94328.00
2023-05-12T06:20:31.072Z,94330.00
2023-05-12T06:21:30.278Z,94330.00
2023-05-12T06:22:30.298Z,94336.00
2023-05-12T06:23:30.240Z,94336.00
2023-05-12T06:24:32.996Z,94334.00
2023-05-12T06:25:30.258Z,94336.00
2023-05-12T06:26:30.227Z,94336.00
2023-05-12T06:27:30.239Z,94334.00
2023-05-12T06:28:30.282Z,94334.00
2023-05-12T06:29:31.009Z,94336.00
2023-05-12T06:30:30.212Z,94336.00
2023-05-12T06:31:30.221Z,94338.00
2023-05-12T06:32:30.643Z,94338.00
2023-05-12T06:33:30.201Z,94340.00
2023-05-12T06:34:30.175Z,94340.00
2023-05-12T06:35:30.169Z,94340.00
2023-05-12T06:36:30.161Z,94340.00
2023-05-12T06:37:30.531Z,94338.00
2023-05-12T06:38:30.137Z,94338.00
2023-05-12T06:39:30.161Z,94340.00
2023-05-12T06:40:30.152Z,94338.00
2023-05-12T06:41:30.170Z,94338.00
2023-05-12T06:42:30.127Z,94336.00
2023-05-12T06:43:30.117Z,94342.00
2023-05-12T06:44:30.112Z,94336.00
2023-05-12T06:45:30.086Z,94334.00
2023-05-12T06:46:30.119Z,94334.00
2023-05-12T06:47:30.551Z,94336.00
2023-05-12T06:48:30.127Z,94338.00
2023-05-12T06:49:30.061Z,94336.00
2023-05-12T06:50:30.079Z,94336.00
2023-05-12T06:51:30.044Z,94336.00
2023-05-12T06:52:30.042Z,94334.00
2023-05-12T06:53:30.541Z,94334.00
2023-05-12T06:54:30.027Z,94334.00
2023-05-12T06:55:30.027Z,94334.00
2023-05-12T06:56:30.012Z,94332.00
2023-05-12T06:57:30.697Z,94334.00
2023-05-12T06:58:30.090Z,94332.00
2023-05-12T06:59:30.003Z,94332.00
2023-05-12T07:00:30.032Z,94330.00
2023-05-12T07:01:30.111Z,94328.00
2023-05-12T07:02:30.021Z,94328.00
2023-05-12T07:03:30.095Z,94328.00
2023-05-12T07:04:30.060Z,94330.00
2023-05-12T07:05:30.009Z,94328.00
2023-05-12T07:06:29.930Z,94326.00
2023-05-12T07:07:29.933Z,94328.00
2023-05-12T07:08:29.919Z,94328.00
2023-05-12T07:09:29.936Z,94328.00
2023-05-12T07:10:30.032Z,94330.00
2023-05-12T07:11:29.931Z,94328.00
2023-05-12T07:12:29.886Z,94328.00
2023-05-12T07:13:30.073Z,94330.00
2023-05-12T07:14:29.894Z,94328.00
2023-05-12T07:15:31.260Z,94326.00
2023-05-12T07:16:29.959Z,94324.00
2023-05-12T07:17:29.887Z,94324.00
2023-05-12T07:18:30.075Z,94320.00
2023-05-12T07:19:29.854Z,94322.00
2023-05-12T07:20:29.843Z,94318.00
2023-05-12T07:21:29.850Z,94311.00
2023-05-12T07:22:29.810Z,94311.00
2023-05-12T07:23:29.814Z,94311.00
2023-05-12T07:24:29.796Z,94312.00
2023-05-12T07:25:29.848Z,94311.00
2023-05-12T07:26:29.821Z,94311.00
2023-05-12T07:27:29.824Z,94309.00
2023-05-12T07:28:30.028Z,94311.00
2023-05-12T07:29:29.806Z,94309.00
2023-05-12T07:30:29.786Z,94309.00
2023-05-12T07:31:29.837Z,94307.00
2023-05-12T07:32:29.747Z,94305.00
2023-05-12T07:33:30.067Z,94305.00
2023-05-12T07:34:29.734Z,94307.00
2023-05-12T07:35:29.710Z,94303.00
2023-05-12T07:36:29.739Z,94303.00
2023-05-12T07:37:29.723Z,94301.00
2023-05-12T07:38:29.694Z,94299.00
2023-05-12T07:39:29.707Z,94301.00
2023-05-12T07:40:29.780Z,94295.00
2023-05-12T07:41:29.669Z,94297.00
2023-05-12T07:42:29.673Z,94293.00
2023-05-12T07:43:29.706Z,94299.00
2023-05-12T07:44:29.667Z,94297.00
2023-05-12T07:45:29.725Z,94295.00
2023-05-12T07:46:29.788Z,94293.00
2023-05-12T07:47:29.684Z,94295.00
2023-05-12T07:48:30.092Z,94293.00
2023-05-12T07:49:29.634Z,94291.00
2023-05-12T07:50:30.670Z,94291.00
2023-05-12T07:51:29.614Z,94293.00
2023-05-12T07:52:29.590Z,94293.00
2023-05-12T07:53:30.081Z,94297.00
2023-05-12T07:54:29.597Z,94299.00
2023-05-12T07:55:29.594Z,94299.00
2023-05-12T07:56:29.635Z,94297.00
2023-05-12T07:57:29.599Z,94301.00
2023-05-12T07:58:30.104Z,94297.00
2023-05-12T07:59:29.581Z,94297.00
2023-05-12T08:00:29.586Z,94297.00
2023-05-12T08:01:29.537Z,94297.00
2023-05-12T08:02:29.590Z,94295.00
2023-05-12T08:03:29.692Z,94295.00
2023-05-12T08:04:29.589Z,94293.00
2023-05-12T08:05:29.556Z,94295.00
2023-05-12T08:06:29.586Z,94293.00
2023-05-12T08:07:29.577Z,94295.00
2023-05-12T08:08:29.480Z,94293.00
2023-05-12T08:09:29.458Z,94293.00
2023-05-12T08:10:29.491Z,94293.00
2023-05-12T08:11:29.478Z,94289.00
2023-05-12T08:12:29.452Z,94291.00
2023-05-12T08:13:29.463Z,94291.00
2023-05-12T08:14:29.507Z,94289.00
2023-05-12T08:15:29.423Z,94291.00
2023-05-12T08:16:29.520Z,94289.00
2023-05-12T08:17:29.642Z,94289.00
2023-05-12T08:18:29.667Z,94291.00
2023-05-12T08:19:29.436Z,94287.00
2023-05-12T08:20:29.388Z,94291.00
2023-05-12T08:21:29.413Z,94291.00
2023-05-12T08:22:29.391Z,94293.00
2023-05-12T08:23:29.561Z,94291.00
2023-05-12T08:24:29.644Z,94289.00
2023-05-12T08:25:29.406Z,94289.00
2023-05-12T08:26:29.364Z,94287.00
2023-05-12T08:27:29.345Z,94289.00
2023-05-12T08:28:29.339Z,94287.00
2023-05-12T08:29:29.340Z,94285.00
2023-05-12T08:30:29.317Z,94283.00
2023-05-12T08:31:29.434Z,94285.00
2023-05-12T08:32:29.349Z,94281.00
2023-05-12T08:33:29.309Z,94281.00
2023-05-12T08:34:29.301Z,94281.00
2023-05-12T08:35:29.314Z,94283.00
2023-05-12T08:36:29.443Z,94281.00
2023-05-12T08:37:29.352Z,94279.00
2023-05-12T08:38:29.521Z,94281.00
2023-05-12T08:39:29.318Z,94281.00
2023-05-12T08:40:29.242Z,94283.00
2023-05-12T08:41:29.281Z,94281.00
2023-05-12T08:42:29.226Z,94279.00
2023-05-12T08:43:29.552Z,94285.00
2023-05-12T08:44:29.218Z,94281.00
2023-05-12T08:45:29.251Z,94279.00
2023-05-12T08:46:29.304Z,94281.00
2023-05-12T08:47:29.340Z,94281.00
2023-05-12T08:48:29.403Z,94279.00
2023-05-12T08:49:29.371Z,94279.00
2023-05-12T08:50:29.378Z,94279.00
2023-05-12T08:51:29.409Z,94279.00
2023-05-12T08:52:29.430Z,94277.00
2023-05-12T08:53:29.459Z,94275.00
2023-05-12T08:54:29.476Z,94275.00
2023-05-12T08:55:33.565Z,94277.00
2023-05-12T08:57:29.951Z,94273.00
2023-05-12T08:58:40.486Z,94273.00
2023-05-12T08:59:29.520Z,94277.00
2023-05-12T09:00:29.529Z,94277.00
2023-05-12T09:01:29.511Z,94277.00
2023-05-12T09:02:38.032Z,94277.00
2023-05-12T09:03:30.609Z,94275.00
2023-05-12T09:04:29.484Z,94273.00
2023-05-12T09:05:29.447Z,94275.00
2023-05-12T09:06:29.470Z,94273.00
2023-05-12T09:07:29.443Z,94279.00
2023-05-12T09:08:29.431Z,94275.00
2023-05-12T09:09:29.426Z,94277.00
2023-05-12T09:11:29.426Z,94277.00
2023-05-12T09:12:29.450Z,94277.00
2023-05-12T09:13:29.576Z,94273.00
2023-05-12T09:14:29.378Z,94271.00
2023-05-12T09:15:29.383Z,94275.00
2023-05-12T09:16:29.454Z,94275.00
2023-05-12T09:17:29.411Z,94275.00
2023-05-12T09:18:29.622Z,94275.00
2023-05-12T09:19:29.343Z,94275.00
2023-05-12T09:20:31.871Z,94275.00
2023-05-12T09:21:29.335Z,94271.00
2023-05-12T09:22:29.333Z,94273.00
2023-05-12T09:23:29.592Z,94271.00
2023-05-12T09:24:29.314Z,94273.00
2023-05-12T09:25:31.090Z,94275.00
2023-05-12T09:26:29.302Z,94269.00
2023-05-12T09:27:29.490Z,94275.00
2023-05-12T09:28:29.271Z,94273.00
2023-05-12T09:29:32.118Z,94273.00
2023-05-12T09:30:29.291Z,94275.00
2023-05-12T09:31:29.319Z,94271.00
2023-05-12T09:32:29.300Z,94275.00
2023-05-12T09:33:29.256Z,94271.00
2023-05-12T09:34:29.248Z,94273.00
2023-05-12T09:35:29.278Z,94271.00
2023-05-12T09:36:29.234Z,94271.00
2023-05-12T09:37:29.215Z,94269.00
2023-05-12T09:38:29.201Z,94269.00
2023-05-12T09:39:29.580Z,94269.00
2023-05-12T09:40:29.206Z,94271.00
2023-05-12T09:41:29.199Z,94271.00
2023-05-12T09:42:29.167Z,94269.00
2023-05-12T09:43:29.708Z,94267.00
2023-05-12T09:44:29.186Z,94267.00
2023-05-12T09:45:29.150Z,94267.00
2023-05-12T09:46:29.175Z,94269.00
2023-05-12T09:47:29.163Z,94269.00
2023-05-12T09:48:29.137Z,94271.00
2023-05-12T09:49:29.566Z,94269.00
2023-05-12T09:50:40.715Z,94269.00
2023-05-12T09:51:30.112Z,94267.00
2023-05-12T09:52:29.128Z,94269.00
2023-05-12T09:53:29.108Z,94267.00
2023-05-12T09:54:29.607Z,94267.00
2023-05-12T09:55:29.127Z,94264.00
2023-05-12T09:56:29.065Z,94264.00
2023-05-12T09:57:29.080Z,94260.00
2023-05-12T09:58:29.077Z,94260.00
2023-05-12T09:59:29.488Z,94260.00
2023-05-12T10:00:46.229Z,94260.00
2023-05-12T10:01:30.120Z,94258.00
2023-05-12T10:02:29.092Z,94256.00
2023-05-12T10:03:29.022Z,94254.00
2023-05-12T10:04:29.083Z,94252.00
2023-05-12T10:05:29.018Z,94254.00
2023-05-12T10:06:29.003Z,94252.00
2023-05-12T10:07:29.008Z,94250.00
2023-05-12T10:08:28.978Z,94246.00
2023-05-12T10:09:29.080Z,94250.00
2023-05-12T10:10:28.960Z,94246.00
2023-05-12T10:11:28.958Z,94244.00
2023-05-12T10:12:28.951Z,94244.00
2023-05-12T10:13:28.984Z,94242.00
2023-05-12T10:14:29.101Z,94240.00
2023-05-12T10:15:29.024Z,94240.00
2023-05-12T10:16:28.952Z,94246.00
2023-05-12T10:17:28.954Z,94246.00
2023-05-12T10:18:28.966Z,94246.00
2023-05-12T10:19:28.923Z,94246.00
2023-05-12T10:20:28.889Z,94244.00
2023-05-12T10:21:28.890Z,94244.00
2023-05-12T10:22:28.892Z,94242.00
2023-05-12T10:23:28.880Z,94242.00
2023-05-12T10:24:29.087Z,94238.00
2023-05-12T10:25:28.899Z,94240.00
2023-05-12T10:26:28.853Z,94234.00
2023-05-12T10:27:28.890Z,94236.00
2023-05-12T10:28:28.888Z,94236.00
2023-05-12T10:29:28.930Z,94232.00
2023-05-12T10:30:28.888Z,94240.00
2023-05-12T10:31:29.051Z,94240.00
2023-05-12T10:32:28.936Z,94234.00
2023-05-12T10:33:28.939Z,94236.00
2023-05-12T10:34:28.980Z,94234.00
2023-05-12T10:35:28.980Z,94230.00
2023-05-12T10:36:29.005Z,94232.00
2023-05-12T10:37:28.994Z,94230.00
2023-05-12T10:38:29.026Z,94232.00
2023-05-12T10:39:29.070Z,94234.00
2023-05-12T10:40:29.135Z,94234.00
2023-05-12T10:41:29.148Z,94230.00
2023-05-12T10:42:29.199Z,94230.00
2023-05-12T10:43:29.275Z,94234.00
2023-05-12T10:44:29.351Z,94230.00
2023-05-12T10:45:29.391Z,94234.00
2023-05-12T10:46:29.467Z,94236.00
2023-05-12T10:47:29.560Z,94234.00
2023-05-12T10:48:29.576Z,94232.00
2023-05-12T10:49:30.098Z,94228.00
2023-05-12T10:50:29.679Z,94228.00
2023-05-12T10:51:29.721Z,94228.00
2023-05-12T10:52:29.796Z,94226.00
2023-05-12T10:53:41.339Z,94222.00
2023-05-12T10:54:31.094Z,94228.00
2023-05-12T10:55:29.893Z,94224.00
2023-05-12T10:56:30.016Z,94222.00
2023-05-12T10:57:29.927Z,94226.00
2023-05-12T10:58:30.041Z,94224.00
2023-05-12T10:59:29.945Z,94218.00
2023-05-12T11:00:30.490Z,94218.00
2023-05-12T11:01:29.934Z,94220.00
2023-05-12T11:02:30.639Z,94218.00
2023-05-12T11:03:30.432Z,94222.00
2023-05-12T11:04:30.197Z,94218.00
2023-05-12T11:05:30.141Z,94220.00
2023-05-12T11:06:30.481Z,94222.00
2023-05-12T11:07:30.552Z,94218.00
2023-05-12T11:08:30.639Z,94214.00
2023-05-12T11:09:31.135Z,94216.00
2023-05-12T11:10:31.151Z,94220.00
2023-05-12T11:11:30.083Z,94218.00
2023-05-12T11:12:30.322Z,94218.00
2023-05-12T11:13:30.115Z,94216.00
2023-05-12T11:14:30.654Z,94218.00
2023-05-12T11:15:30.215Z,94216.00
2023-05-12T11:16:30.247Z,94216.00
2023-05-12T11:17:30.351Z,94214.00
2023-05-12T11:18:30.336Z,94214.00
2023-05-12T11:19:30.603Z,94212.00
2023-05-12T11:20:31.295Z,94210.00
2023-05-12T11:21:30.358Z,94210.00
2023-05-12T11:22:30.415Z,94209.00
2023-05-12T11:23:30.397Z,94209.00
2023-05-12T11:24:30.591Z,94207.00
2023-05-12T11:25:31.090Z,94201.00
2023-05-12T11:26:30.465Z,94205.00
2023-05-12T11:27:30.465Z,94205.00
2023-05-12T11:28:30.468Z,94203.00
2023-05-12T11:29:30.494Z,94203.00
2023-05-12T11:30:30.477Z,94199.00
2023-05-12T11:31:30.513Z,94199.00
2023-05-12T11:32:30.694Z,94201.00
2023-05-12T11:33:30.493Z,94195.00
2023-05-12T11:34:30.543Z,94193.00
2023-05-12T11:35:30.568Z,94195.00
2023-05-12T11:36:30.580Z,94195.00
2023-05-12T11:37:30.591Z,94193.00
2023-05-12T11:38:30.583Z,94193.00
2023-05-12T11:39:30.593Z,94195.00
2023-05-12T11:40:30.670Z,94197.00
2023-05-12T11:41:30.671Z,94195.00
2023-05-12T11:42:30.730Z,94197.00
2023-05-12T11:43:30.726Z,94193.00
2023-05-12T11:44:30.741Z,94193.00
2023-05-12T11:45:30.792Z,94191.00
2023-05-12T11:46:30.834Z,94189.00
2023-05-12T11:47:30.827Z,94189.00